Sydenham, Canada
Current Conditions -  °F | °C
As of 9:00 AM on Sunday 25 Jan 2015 (Local Time) from CYVV Reporting Station
Snow Showers Snow Showers  
Wind Chill: -20°   Ceiling: 2000
Heat Index: -13°   Visibility: 6mi
Dew Point: -15°   Wind: 8mph
Humidity: 85%   Direction: 20°NNE
Pressure: 29.93"   Gusts: NA
Location:  44.57°N, 80.8°W
Report Text: CYVV 251400Z 02007KT 330V060 6SM -SHSN BKN020 M13/M15 A2993 RMK SC6 SLP151
Loading
Personal Weather Stations






























Interactive Weather Map New forecast layout! Learn more

10-Day Weather Forecast

Advertisements
Track Severe Weather on mobile